createdAt,value
2018-05-21T00:00:12.829Z,95.40
2018-05-21T00:02:40.873Z,95.40
2018-05-21T00:05:09.281Z,95.40
2018-05-21T00:07:37.332Z,95.40
2018-05-21T00:10:05.408Z,95.40
2018-05-21T00:12:33.701Z,95.30
2018-05-21T00:15:01.740Z,95.30
2018-05-21T00:17:29.805Z,95.30
2018-05-21T00:19:58.297Z,95.20
2018-05-21T00:22:26.382Z,95.20
2018-05-21T00:24:54.437Z,95.10
2018-05-21T00:27:22.817Z,95.10
2018-05-21T00:29:50.901Z,95.20
2018-05-21T00:32:18.953Z,95.30
2018-05-21T00:34:47.021Z,95.30
2018-05-21T00:37:16.245Z,95.30
2018-05-21T00:39:44.302Z,95.40
2018-05-21T00:42:12.781Z,95.50
2018-05-21T00:44:40.841Z,95.60
2018-05-21T00:47:08.909Z,95.60
2018-05-21T00:49:37.401Z,95.60
2018-05-21T00:52:05.401Z,95.60
2018-05-21T00:54:33.477Z,95.50
2018-05-21T00:57:01.560Z,95.40
2018-05-21T00:59:29.601Z,95.50
2018-05-21T01:01:57.689Z,95.50
2018-05-21T01:04:25.750Z,95.50
2018-05-21T01:06:53.802Z,95.40
2018-05-21T01:09:21.865Z,95.50
2018-05-21T01:11:50.281Z,95.60
2018-05-21T01:14:18.352Z,95.60
2018-05-21T01:16:46.425Z,95.50
2018-05-21T01:19:14.801Z,95.50
2018-05-21T01:21:42.857Z,95.40
2018-05-21T01:24:11.841Z,95.40
2018-05-21T01:26:39.937Z,95.40
2018-05-21T01:29:07.992Z,95.40
2018-05-21T01:31:36.389Z,95.30
2018-05-21T01:34:04.474Z,95.40
2018-05-21T01:36:32.517Z,95.40
2018-05-21T01:39:00.880Z,95.20
2018-05-21T01:41:28.941Z,95.50
2018-05-21T01:43:57.036Z,95.60
2018-05-21T01:46:25.429Z,95.60
2018-05-21T01:48:53.484Z,95.70
2018-05-21T01:51:21.546Z,95.60
2018-05-21T01:53:49.646Z,95.40
2018-05-21T01:56:17.696Z,95.50
2018-05-21T01:58:45.762Z,95.50
2018-05-21T02:01:14.137Z,95.30
2018-05-21T02:03:42.221Z,95.30
2018-05-21T02:06:10.281Z,95.20
2018-05-21T02:08:38.633Z,95.30
2018-05-21T02:11:06.641Z,95.30
2018-05-21T02:13:34.892Z,95.60
2018-05-21T02:16:03.001Z,95.30
2018-05-21T02:18:31.044Z,95.20
2018-05-21T02:20:59.102Z,95.10
2018-05-21T02:23:27.525Z,94.90
2018-05-21T02:25:55.785Z,94.80
2018-05-21T02:28:23.873Z,94.80
2018-05-21T02:30:52.149Z,94.80
2018-05-21T02:33:20.233Z,94.90
2018-05-21T02:35:48.297Z,94.90
2018-05-21T02:38:16.389Z,94.80
2018-05-21T02:40:45.237Z,94.90
2018-05-21T02:43:13.308Z,94.90
2018-05-21T02:45:41.364Z,94.80
2018-05-21T02:48:09.449Z,94.80
2018-05-21T02:50:37.496Z,94.90
2018-05-21T02:53:06.027Z,94.90
2018-05-21T02:55:35.687Z,94.90
2018-05-21T02:58:03.761Z,94.90
2018-05-21T03:00:32.176Z,94.90
2018-05-21T03:03:00.351Z,94.90
2018-05-21T03:05:28.420Z,94.90
2018-05-21T03:07:56.480Z,94.90
2018-05-21T03:10:24.564Z,94.70
2018-05-21T03:12:52.637Z,94.40
2018-05-21T03:15:20.849Z,94.10
2018-05-21T03:17:49.672Z,94.30
2018-05-21T03:20:17.732Z,94.30
2018-05-21T03:22:45.845Z,94.40
2018-05-21T03:25:13.917Z,94.60
2018-05-21T03:27:42.277Z,94.70
2018-05-21T03:30:10.385Z,94.70
2018-05-21T03:32:39.244Z,95.10
2018-05-21T03:35:07.325Z,94.90
2018-05-21T03:37:35.767Z,94.90
2018-05-21T03:40:03.841Z,94.90
2018-05-21T03:42:31.884Z,94.90
2018-05-21T03:45:00.241Z,94.90
2018-05-21T03:47:28.280Z,94.90
2018-05-21T03:49:56.369Z,94.90
2018-05-21T03:52:24.925Z,94.90
2018-05-21T03:54:52.984Z,94.90
2018-05-21T03:57:21.052Z,94.90
2018-05-21T03:59:49.473Z,94.80
2018-05-21T04:02:17.517Z,94.50
2018-05-21T04:04:45.576Z,94.40
2018-05-21T04:07:13.649Z,94.40
2018-05-21T04:09:41.745Z,93.40
2018-05-21T04:12:09.813Z,93.40
2018-05-21T04:14:37.905Z,93.40
2018-05-21T04:17:06.034Z,92.80
2018-05-21T04:19:34.109Z,92.70
2018-05-21T04:22:02.600Z,92.50
2018-05-21T04:24:30.658Z,91.90
2018-05-21T04:26:58.733Z,92.70
2018-05-21T04:29:26.902Z,93.20
2018-05-21T04:31:55.908Z,92.90
2018-05-21T04:34:23.993Z,92.30
2018-05-21T04:36:52.081Z,92.10
2018-05-21T04:39:20.461Z,91.90
2018-05-21T04:41:48.500Z,91.90
2018-05-21T04:44:16.569Z,91.90
2018-05-21T04:46:44.677Z,91.80
2018-05-21T04:49:12.745Z,91.60
2018-05-21T04:51:40.817Z,91.30
2018-05-21T04:54:10.601Z,90.80
2018-05-21T04:56:38.660Z,90.80
2018-05-21T04:59:06.728Z,90.80
2018-05-21T05:01:34.841Z,90.50
2018-05-21T05:04:02.887Z,90.40
2018-05-21T05:06:30.949Z,90.00
2018-05-21T05:08:59.030Z,89.00
2018-05-21T05:11:27.933Z,88.70
2018-05-21T05:13:56.701Z,89.60
2018-05-21T05:16:24.788Z,88.50
2018-05-21T05:18:52.878Z,88.20
2018-05-21T05:21:21.869Z,90.00
2018-05-21T05:23:49.941Z,90.10
2018-05-21T05:26:18.013Z,90.00
2018-05-21T05:28:46.393Z,89.70
2018-05-21T05:31:15.561Z,89.80
2018-05-21T05:33:44.461Z,90.40
2018-05-21T05:36:12.565Z,90.40
2018-05-21T05:38:40.605Z,90.90
2018-05-21T05:41:08.972Z,90.50
2018-05-21T05:43:37.060Z,90.70
2018-05-21T05:46:05.116Z,89.70
2018-05-21T05:48:34.445Z,90.30
2018-05-21T05:51:02.517Z,88.40
2018-05-21T05:53:30.568Z,89.40
2018-05-21T05:55:59.817Z,88.60
2018-05-21T05:58:28.663Z,86.50
2018-05-21T06:00:56.764Z,86.60
2018-05-21T06:03:25.124Z,85.20
2018-05-21T06:05:53.202Z,85.60
2018-05-21T06:08:21.281Z,84.20
2018-05-21T06:10:49.754Z,84.50
2018-05-21T06:13:17.810Z,84.60
2018-05-21T06:15:45.876Z,82.90
2018-05-21T06:18:14.169Z,79.20
2018-05-21T06:20:42.220Z,82.70
2018-05-21T06:23:10.280Z,77.30
2018-05-21T06:25:38.692Z,81.70
2018-05-21T06:28:06.746Z,80.40
2018-05-21T06:30:34.802Z,81.80
2018-05-21T06:33:02.901Z,78.50
2018-05-21T06:35:31.104Z,77.30
2018-05-21T06:37:59.956Z,78.90
2018-05-21T06:40:28.416Z,79.00
2018-05-21T06:42:56.481Z,78.70
2018-05-21T06:45:24.551Z,81.00
2018-05-21T06:47:52.940Z,75.10
2018-05-21T06:50:21.024Z,75.30
2018-05-21T06:52:49.113Z,78.20
2018-05-21T06:55:17.460Z,75.90
2018-05-21T06:57:45.544Z,71.40
2018-05-21T07:00:13.633Z,70.00
2018-05-21T07:02:41.987Z,69.40
2018-05-21T07:05:10.044Z,68.30
2018-05-21T07:07:38.112Z,68.90
2018-05-21T07:10:06.213Z,67.20
2018-05-21T07:12:34.708Z,70.80
2018-05-21T07:15:02.748Z,66.50
2018-05-21T07:17:30.852Z,67.90
2018-05-21T07:19:58.921Z,68.20
2018-05-21T07:22:27.700Z,66.50
2018-05-21T07:24:55.780Z,63.40
2018-05-21T07:27:23.853Z,62.50
2018-05-21T07:29:51.937Z,59.40
2018-05-21T07:32:20.009Z,56.40
2018-05-21T07:34:48.049Z,54.70
2018-05-21T07:37:16.153Z,48.90
2018-05-21T07:39:44.192Z,47.70
2018-05-21T07:42:12.297Z,43.60
2018-05-21T07:44:40.832Z,46.10
2018-05-21T07:47:09.009Z,43.80
2018-05-21T07:49:37.005Z,42.80
2018-05-21T07:52:05.384Z,43.10
2018-05-21T07:54:33.429Z,44.10
2018-05-21T07:57:01.492Z,45.40
2018-05-21T07:59:29.905Z,46.40
2018-05-21T08:01:57.960Z,46.40
2018-05-21T08:04:26.051Z,46.60
2018-05-21T08:06:54.605Z,44.10
2018-05-21T08:09:22.691Z,44.40
2018-05-21T08:11:51.430Z,41.60
2018-05-21T08:14:19.500Z,43.60
2018-05-21T08:16:47.549Z,41.60
2018-05-21T08:19:15.909Z,40.00
2018-05-21T08:21:43.980Z,38.90
2018-05-21T08:24:12.949Z,41.10
2018-05-21T08:26:41.020Z,39.80
2018-05-21T08:29:09.100Z,40.70
2018-05-21T08:31:37.173Z,41.90
2018-05-21T08:34:05.278Z,43.50
2018-05-21T08:36:33.349Z,41.90
2018-05-21T08:39:01.709Z,40.00
2018-05-21T08:41:29.781Z,39.50
2018-05-21T08:43:58.744Z,40.40
2018-05-21T08:46:26.829Z,38.30
2018-05-21T08:48:54.892Z,39.10
2018-05-21T08:51:23.584Z,41.50
2018-05-21T08:53:51.673Z,43.80
2018-05-21T08:56:19.745Z,44.50
2018-05-21T08:58:48.676Z,44.00
2018-05-21T09:01:16.724Z,43.00
2018-05-21T09:03:44.795Z,41.20
2018-05-21T09:06:13.116Z,43.40
2018-05-21T09:08:41.193Z,42.50
2018-05-21T09:11:10.633Z,42.70
2018-05-21T09:13:38.684Z,41.30
2018-05-21T09:16:06.744Z,39.80
2018-05-21T09:18:35.153Z,38.70
2018-05-21T09:21:03.228Z,40.10
2018-05-21T09:23:31.297Z,38.20
2018-05-21T09:25:59.450Z,37.90
2018-05-21T09:28:27.437Z,38.20
2018-05-21T09:30:55.508Z,40.50
2018-05-21T09:33:23.757Z,39.10
2018-05-21T09:35:52.752Z,42.60
2018-05-21T09:38:20.812Z,42.80
2018-05-21T09:40:48.905Z,39.10
2018-05-21T09:43:17.301Z,42.90
2018-05-21T09:45:45.373Z,38.50
2018-05-21T09:48:13.485Z,39.10
2018-05-21T09:50:41.792Z,40.20
2018-05-21T09:53:09.877Z,43.40
2018-05-21T09:55:38.053Z,37.80
2018-05-21T09:58:06.633Z,38.10
2018-05-21T10:00:34.723Z,36.10
2018-05-21T10:03:02.793Z,38.30
2018-05-21T10:05:31.793Z,40.20
2018-05-21T10:07:59.840Z,39.30
2018-05-21T10:10:27.900Z,37.80
2018-05-21T10:12:56.310Z,35.20
2018-05-21T10:15:24.381Z,33.90
2018-05-21T10:17:53.188Z,34.00
2018-05-21T10:20:22.336Z,36.00
2018-05-21T10:22:50.411Z,35.90
2018-05-21T10:25:18.493Z,34.90
2018-05-21T10:27:46.609Z,40.20
2018-05-21T10:30:15.495Z,37.10
2018-05-21T10:32:43.557Z,37.00
2018-05-21T10:35:11.892Z,37.90
2018-05-21T10:37:39.977Z,36.00
2018-05-21T10:40:08.033Z,36.50
2018-05-21T10:42:36.413Z,35.70
2018-05-21T10:45:04.497Z,35.40
2018-05-21T10:47:32.557Z,37.20
2018-05-21T10:50:00.865Z,37.90
2018-05-21T10:52:28.913Z,34.80
2018-05-21T10:54:56.976Z,36.00
2018-05-21T10:57:25.381Z,35.50
2018-05-21T10:59:53.425Z,32.90
2018-05-21T11:02:21.487Z,36.10
2018-05-21T11:04:49.597Z,36.00
2018-05-21T11:07:17.674Z,36.10
2018-05-21T11:09:45.737Z,34.40
2018-05-21T11:12:14.168Z,35.30
2018-05-21T11:14:42.206Z,36.80
2018-05-21T11:17:10.272Z,35.80
2018-05-21T11:19:38.817Z,40.10
2018-05-21T11:22:06.900Z,36.90
2018-05-21T11:24:35.043Z,38.60
2018-05-21T11:27:03.058Z,36.80
2018-05-21T11:29:31.118Z,38.50
2018-05-21T11:31:59.224Z,36.30
2018-05-21T11:34:27.785Z,39.00
2018-05-21T11:36:55.853Z,34.10
2018-05-21T11:39:23.925Z,36.60
2018-05-21T11:41:51.989Z,36.70
2018-05-21T11:44:20.068Z,39.10
2018-05-21T11:46:48.109Z,39.30
2018-05-21T11:49:16.192Z,36.60
2018-05-21T11:51:44.280Z,36.50
2018-05-21T11:54:12.353Z,36.70
2018-05-21T11:56:40.816Z,37.70
2018-05-21T11:59:08.904Z,37.00
2018-05-21T12:01:36.985Z,37.50
2018-05-21T12:04:05.357Z,38.30
2018-05-21T12:06:33.409Z,37.00
2018-05-21T12:09:01.845Z,37.80
2018-05-21T12:11:29.943Z,35.90
2018-05-21T12:13:58.017Z,35.30
2018-05-21T12:16:26.084Z,38.90
2018-05-21T12:18:54.193Z,39.20
2018-05-21T12:21:22.267Z,40.00
2018-05-21T12:23:50.337Z,37.40
2018-05-21T12:26:19.950Z,35.70
2018-05-21T12:28:49.549Z,33.80
2018-05-21T12:31:17.624Z,33.90
2018-05-21T12:33:45.679Z,39.10
2018-05-21T12:36:13.737Z,37.90
2018-05-21T12:38:41.824Z,38.90
2018-05-21T12:41:10.288Z,36.50
2018-05-21T12:43:38.444Z,37.60
2018-05-21T12:46:06.473Z,35.80
2018-05-21T12:48:34.517Z,36.40
2018-05-21T12:51:02.606Z,36.50
2018-05-21T12:53:30.656Z,34.80
2018-05-21T12:55:59.464Z,34.80
2018-05-21T12:58:27.537Z,36.30
2018-05-21T13:00:55.604Z,35.90
2018-05-21T13:03:23.701Z,35.00
2018-05-21T13:05:52.556Z,34.00
2018-05-21T13:08:20.641Z,33.90
2018-05-21T13:10:48.737Z,33.50
2018-05-21T13:13:17.569Z,37.10
2018-05-21T13:15:45.631Z,36.40
2018-05-21T13:18:13.921Z,35.10
2018-05-21T13:20:41.985Z,37.20
2018-05-21T13:23:10.080Z,36.90
2018-05-21T13:25:38.360Z,35.90
2018-05-21T13:28:06.487Z,36.10
2018-05-21T13:30:34.512Z,34.10
2018-05-21T13:33:02.893Z,35.40
2018-05-21T13:35:30.964Z,33.50
2018-05-21T13:37:59.033Z,34.10
2018-05-21T13:40:27.122Z,34.00
2018-05-21T13:42:56.685Z,33.00
2018-05-21T13:45:24.947Z,33.00
2018-05-21T13:47:53.337Z,32.80
2018-05-21T13:50:21.421Z,34.30
2018-05-21T13:52:49.510Z,35.10
2018-05-21T13:55:17.569Z,37.10
2018-05-21T13:57:45.841Z,34.80
2018-05-21T14:00:13.901Z,34.70
2018-05-21T14:02:42.513Z,33.80
2018-05-21T14:05:10.556Z,33.60
2018-05-21T14:07:38.616Z,34.50
2018-05-21T14:10:07.049Z,36.80
2018-05-21T14:12:35.198Z,37.50
2018-05-21T14:15:03.980Z,39.40
2018-05-21T14:17:32.081Z,39.30
2018-05-21T14:20:00.152Z,39.10
2018-05-21T14:22:28.193Z,38.50
2018-05-21T14:24:56.547Z,36.60
2018-05-21T14:27:25.565Z,38.00
2018-05-21T14:29:53.679Z,37.40
2018-05-21T14:32:21.681Z,36.90
2018-05-21T14:34:50.101Z,34.90
2018-05-21T14:37:18.144Z,35.50
2018-05-21T14:39:46.229Z,37.10
2018-05-21T14:42:14.332Z,39.70
2018-05-21T14:44:42.400Z,40.70
2018-05-21T14:47:10.473Z,41.10
2018-05-21T14:49:39.016Z,40.70
2018-05-21T14:52:07.301Z,41.90
2018-05-21T14:54:35.361Z,41.80
2018-05-21T14:57:03.768Z,42.00
2018-05-21T14:59:31.824Z,42.10
2018-05-21T15:01:59.998Z,40.70
2018-05-21T15:04:28.291Z,38.40
2018-05-21T15:06:56.361Z,38.90
2018-05-21T15:09:24.433Z,38.00
2018-05-21T15:11:53.117Z,37.70
2018-05-21T15:14:21.161Z,36.80
2018-05-21T15:16:49.277Z,37.80
2018-05-21T15:19:18.461Z,40.30
2018-05-21T15:21:46.528Z,40.30
2018-05-21T15:24:14.606Z,39.80
2018-05-21T15:26:42.689Z,42.20
2018-05-21T15:29:11.753Z,44.10
2018-05-21T15:31:39.809Z,44.00
2018-05-21T15:34:08.386Z,43.20
2018-05-21T15:36:36.481Z,44.30
2018-05-21T15:39:04.564Z,44.30
2018-05-21T15:41:32.945Z,44.30
2018-05-21T15:44:00.990Z,43.90
2018-05-21T15:46:29.074Z,43.50
2018-05-21T15:48:57.979Z,43.90
2018-05-21T15:51:26.048Z,42.10
2018-05-21T15:53:54.903Z,41.90
2018-05-21T15:56:23.022Z,41.90
2018-05-21T15:58:51.100Z,41.90
2018-05-21T16:01:19.171Z,41.00
2018-05-21T16:03:47.541Z,41.50
2018-05-21T16:06:15.622Z,41.30
2018-05-21T16:08:43.756Z,41.10
2018-05-21T16:11:12.229Z,42.30
2018-05-21T16:13:40.313Z,42.10
2018-05-21T16:16:08.405Z,41.70
2018-05-21T16:18:36.469Z,40.70
2018-05-21T16:21:04.529Z,40.00
2018-05-21T16:23:32.589Z,40.90
2018-05-21T16:26:00.965Z,41.30
2018-05-21T16:28:29.029Z,43.20
2018-05-21T16:30:57.130Z,44.10
2018-05-21T16:33:26.208Z,44.70
2018-05-21T16:35:54.265Z,45.90
2018-05-21T16:38:22.421Z,44.30
2018-05-21T16:40:51.061Z,44.20
2018-05-21T16:43:19.133Z,46.10
2018-05-21T16:45:47.176Z,45.60
2018-05-21T16:48:15.256Z,48.00
2018-05-21T16:50:43.537Z,46.80
2018-05-21T16:53:11.593Z,49.00
2018-05-21T16:55:39.901Z,50.70
2018-05-21T16:58:07.940Z,51.60
2018-05-21T17:00:36.026Z,51.20
2018-05-21T17:03:04.492Z,52.60
2018-05-21T17:05:32.552Z,55.00
2018-05-21T17:08:01.208Z,50.70
2018-05-21T17:10:29.264Z,52.80
2018-05-21T17:12:57.307Z,50.80
2018-05-21T17:15:25.669Z,50.80
2018-05-21T17:17:53.757Z,53.40
2018-05-21T17:20:21.923Z,52.50
2018-05-21T17:22:49.916Z,55.90
2018-05-21T17:25:17.964Z,57.50
2018-05-21T17:27:46.025Z,58.70
2018-05-21T17:30:14.406Z,58.00
2018-05-21T17:32:42.597Z,58.90
2018-05-21T17:35:10.676Z,59.10
2018-05-21T17:37:38.770Z,58.90
2018-05-21T17:40:07.599Z,58.80
2018-05-21T17:42:35.670Z,58.80
2018-05-21T17:45:03.753Z,59.00
2018-05-21T17:47:31.817Z,60.40
2018-05-21T17:49:59.912Z,61.00
2018-05-21T17:52:28.307Z,60.40
2018-05-21T17:54:57.874Z,59.20
2018-05-21T17:57:25.957Z,59.20
2018-05-21T17:59:54.038Z,59.70
2018-05-21T18:02:22.096Z,59.70
2018-05-21T18:04:50.185Z,58.80
2018-05-21T18:07:18.548Z,58.90
2018-05-21T18:09:46.788Z,59.20
2018-05-21T18:12:14.885Z,60.20
2018-05-21T18:14:43.122Z,61.60
2018-05-21T18:17:11.973Z,65.00
2018-05-21T18:19:40.061Z,64.20
2018-05-21T18:22:08.503Z,65.00
2018-05-21T18:24:36.574Z,65.80
2018-05-21T18:27:04.620Z,66.70
2018-05-21T18:29:33.061Z,67.60
2018-05-21T18:32:01.134Z,68.30
2018-05-21T18:34:29.368Z,68.90
2018-05-21T18:36:57.481Z,69.80
2018-05-21T18:39:25.529Z,70.90
2018-05-21T18:41:53.609Z,71.40
2018-05-21T18:44:21.669Z,72.10
2018-05-21T18:46:49.733Z,72.50
2018-05-21T18:49:17.796Z,73.50
2018-05-21T18:51:46.177Z,73.80
2018-05-21T18:54:14.251Z,74.80
2018-05-21T18:56:42.296Z,76.00
2018-05-21T18:59:10.724Z,78.30
2018-05-21T19:01:38.784Z,79.10
2018-05-21T19:04:06.865Z,78.80
2018-05-21T19:06:35.246Z,78.90
2018-05-21T19:09:03.313Z,80.80
2018-05-21T19:11:31.521Z,79.60
2018-05-21T19:13:59.584Z,79.60
2018-05-21T19:16:27.667Z,79.90
2018-05-21T19:18:56.522Z,80.60
2018-05-21T19:21:25.024Z,80.70
2018-05-21T19:23:53.090Z,81.90
2018-05-21T19:26:21.137Z,82.10
2018-05-21T19:28:49.512Z,82.10
2018-05-21T19:31:17.572Z,82.50
2018-05-21T19:33:45.673Z,82.60
2018-05-21T19:36:13.828Z,82.60
2018-05-21T19:38:41.912Z,82.70
2018-05-21T19:41:09.977Z,83.10
2018-05-21T19:43:38.477Z,82.80
2018-05-21T19:46:06.553Z,82.80
2018-05-21T19:48:34.624Z,83.10
2018-05-21T19:51:03.001Z,83.00
2018-05-21T19:53:31.077Z,83.60
2018-05-21T19:55:59.118Z,84.10
2018-05-21T19:58:27.498Z,84.40
2018-05-21T20:00:55.556Z,84.40
2018-05-21T20:03:23.649Z,84.80
2018-05-21T20:05:52.120Z,85.30
2018-05-21T20:08:20.214Z,85.40
2018-05-21T20:10:48.260Z,85.60
2018-05-21T20:13:16.773Z,85.80
2018-05-21T20:15:44.861Z,85.80
2018-05-21T20:18:12.896Z,86.40
2018-05-21T20:20:40.969Z,86.40
2018-05-21T20:23:09.028Z,86.80
2018-05-21T20:25:37.117Z,87.60
2018-05-21T20:28:05.477Z,87.10
2018-05-21T20:30:33.561Z,87.30
2018-05-21T20:33:01.622Z,87.60
2018-05-21T20:35:29.722Z,88.00
2018-05-21T20:37:57.779Z,88.30
2018-05-21T20:40:25.836Z,88.70
2018-05-21T20:42:54.228Z,88.70
2018-05-21T20:45:22.379Z,89.30
2018-05-21T20:47:50.344Z,89.60
2018-05-21T20:50:18.572Z,89.60
2018-05-21T20:52:46.645Z,89.50
2018-05-21T20:55:14.684Z,89.60
2018-05-21T20:57:43.049Z,89.90
2018-05-21T21:00:11.137Z,90.00
2018-05-21T21:02:39.309Z,90.00
2018-05-21T21:05:07.673Z,90.10
2018-05-21T21:07:35.769Z,90.20
2018-05-21T21:10:03.850Z,90.10
2018-05-21T21:12:31.925Z,90.10
2018-05-21T21:15:00.049Z,90.20
2018-05-21T21:17:28.120Z,90.40
2018-05-21T21:19:56.205Z,90.30
2018-05-21T21:22:24.289Z,90.50
2018-05-21T21:24:52.348Z,90.50
2018-05-21T21:27:20.854Z,90.40
2018-05-21T21:29:48.900Z,90.40
2018-05-21T21:32:16.960Z,90.40
2018-05-21T21:34:45.072Z,90.50
2018-05-21T21:37:13.148Z,90.60
2018-05-21T21:39:41.197Z,90.70
2018-05-21T21:42:09.527Z,90.90
2018-05-21T21:44:38.429Z,91.10
2018-05-21T21:47:06.428Z,91.00
2018-05-21T21:49:34.811Z,91.10
2018-05-21T21:52:02.865Z,91.00
2018-05-21T21:54:30.936Z,91.00
2018-05-21T21:56:59.221Z,91.00
2018-05-21T21:59:27.304Z,91.10
2018-05-21T22:01:55.364Z,91.20
2018-05-21T22:04:23.437Z,91.30
2018-05-21T22:06:51.525Z,91.20
2018-05-21T22:09:19.581Z,91.40
2018-05-21T22:11:47.985Z,91.40
2018-05-21T22:14:16.062Z,91.40
2018-05-21T22:16:44.196Z,91.30
2018-05-21T22:19:12.273Z,91.30
2018-05-21T22:21:40.356Z,91.20
2018-05-21T22:24:08.417Z,91.20
2018-05-21T22:26:36.517Z,91.20
2018-05-21T22:29:04.601Z,91.20
2018-05-21T22:31:32.656Z,91.20
2018-05-21T22:34:00.744Z,91.30
2018-05-21T22:36:28.787Z,91.50
2018-05-21T22:38:56.845Z,91.60
2018-05-21T22:41:24.928Z,91.60
2018-05-21T22:43:53.030Z,91.60
2018-05-21T22:46:21.101Z,91.70
2018-05-21T22:48:49.189Z,91.70
2018-05-21T22:51:18.009Z,91.60
2018-05-21T22:53:46.104Z,91.60
2018-05-21T22:56:14.209Z,91.60
2018-05-21T22:58:42.244Z,91.50
2018-05-21T23:01:10.305Z,91.40
2018-05-21T23:03:38.609Z,91.50
2018-05-21T23:06:06.770Z,91.70
2018-05-21T23:08:34.857Z,91.60
2018-05-21T23:11:02.949Z,91.50
2018-05-21T23:13:31.801Z,91.40
2018-05-21T23:15:59.909Z,91.40
2018-05-21T23:18:28.856Z,91.60
2018-05-21T23:20:56.937Z,91.50
2018-05-21T23:23:25.041Z,91.70
2018-05-21T23:25:53.317Z,91.80
2018-05-21T23:28:21.356Z,91.70
2018-05-21T23:30:49.413Z,91.90
2018-05-21T23:33:17.517Z,91.30
2018-05-21T23:35:45.585Z,91.50
2018-05-21T23:38:13.656Z,91.70
2018-05-21T23:40:41.748Z,91.80
2018-05-21T23:43:10.577Z,92.20
2018-05-21T23:45:38.665Z,91.90
2018-05-21T23:48:06.748Z,91.80
2018-05-21T23:50:34.804Z,91.90
2018-05-21T23:53:02.893Z,91.80
2018-05-21T23:55:31.285Z,91.60
2018-05-21T23:57:59.357Z,91.60
